createdAt,value
2022-08-28T00:01:35.343Z,12.70
2022-08-28T00:06:38.057Z,11.60
2022-08-28T00:11:41.088Z,12.50
2022-08-28T00:16:43.827Z,12.50
2022-08-28T00:21:47.967Z,10.50
2022-08-28T00:27:09.382Z,9.40
2022-08-28T00:32:12.220Z,9.80
2022-08-28T00:37:15.330Z,8.20
2022-08-28T00:42:18.493Z,8.50
2022-08-28T00:47:26.373Z,8.00
2022-08-28T00:52:29.551Z,7.90
2022-08-28T00:57:40.991Z,8.00
2022-08-28T01:02:44.243Z,7.90
2022-08-28T01:07:48.037Z,8.60
2022-08-28T01:12:53.225Z,8.70
2022-08-28T01:18:05.939Z,8.40
2022-08-28T01:23:33.459Z,8.60
2022-08-28T01:28:36.310Z,9.50
2022-08-28T01:33:42.641Z,9.10
2022-08-28T01:38:49.777Z,8.50
2022-08-28T01:43:54.026Z,8.40
2022-08-28T01:48:57.035Z,8.90
2022-08-28T01:53:59.743Z,8.20
2022-08-28T01:59:06.705Z,8.40
2022-08-28T02:04:11.252Z,8.00
2022-08-28T02:09:14.521Z,8.00
2022-08-28T02:14:17.829Z,8.00
2022-08-28T02:19:21.011Z,7.20
2022-08-28T02:24:24.063Z,7.40
2022-08-28T02:29:27.328Z,7.10
2022-08-28T02:34:30.085Z,7.60
2022-08-28T02:39:32.823Z,7.70
2022-08-28T02:44:35.915Z,7.00
2022-08-28T02:49:38.676Z,7.20
2022-08-28T02:54:41.415Z,7.40
2022-08-28T02:59:44.145Z,7.20
2022-08-28T03:04:46.877Z,7.00
2022-08-28T03:09:50.591Z,7.50
2022-08-28T03:14:54.381Z,7.30
2022-08-28T03:19:57.163Z,6.80
2022-08-28T03:25:00.200Z,7.20
2022-08-28T03:30:04.279Z,7.30
2022-08-28T03:35:07.925Z,6.80
2022-08-28T03:40:12.051Z,6.70
2022-08-28T03:45:15.195Z,7.30
2022-08-28T03:50:18.599Z,6.40
2022-08-28T03:55:23.046Z,6.90
2022-08-28T04:00:25.917Z,7.40
2022-08-28T04:05:28.671Z,6.90
2022-08-28T04:10:33.197Z,6.30
2022-08-28T04:15:36.307Z,7.10
2022-08-28T04:20:39.314Z,6.50
2022-08-28T04:25:42.260Z,7.30
2022-08-28T04:30:44.940Z,6.80
2022-08-28T04:35:47.760Z,6.90
2022-08-28T04:40:50.529Z,6.70
2022-08-28T04:45:53.256Z,7.30
2022-08-28T04:50:56.086Z,7.50
2022-08-28T04:56:00.653Z,6.90
2022-08-28T05:01:09.340Z,6.50
2022-08-28T05:06:14.359Z,6.50
2022-08-28T05:11:33.530Z,6.60
2022-08-28T05:16:43.360Z,6.60
2022-08-28T05:21:47.390Z,6.50
2022-08-28T05:26:50.628Z,6.50
2022-08-28T05:31:53.632Z,7.30
2022-08-28T05:36:56.654Z,6.90
2022-08-28T05:41:59.377Z,7.00
2022-08-28T05:47:03.070Z,6.10
2022-08-28T05:52:05.828Z,7.10
2022-08-28T05:57:08.516Z,6.50
2022-08-28T06:02:11.320Z,7.80
2022-08-28T06:07:15.612Z,7.20
2022-08-28T06:12:18.300Z,6.60
2022-08-28T06:17:23.691Z,7.30
2022-08-28T06:22:26.784Z,7.00
2022-08-28T06:27:31.221Z,7.00
2022-08-28T06:32:33.964Z,6.30
2022-08-28T06:37:36.850Z,6.60
2022-08-28T06:42:39.829Z,6.90
2022-08-28T06:47:42.851Z,6.30
2022-08-28T06:52:45.587Z,6.30
2022-08-28T06:57:48.288Z,6.10
2022-08-28T07:02:51.054Z,6.00
2022-08-28T07:07:54.729Z,6.40
2022-08-28T07:12:57.968Z,5.40
2022-08-28T07:18:00.827Z,6.70
2022-08-28T07:23:04.798Z,6.00
2022-08-28T07:28:08.887Z,6.60
2022-08-28T07:33:12.420Z,6.30
2022-08-28T07:38:15.296Z,6.20
2022-08-28T07:43:36.929Z,5.80
2022-08-28T07:48:41.441Z,5.50
2022-08-28T07:53:44.155Z,6.00
2022-08-28T07:58:48.574Z,5.90
2022-08-28T08:03:51.682Z,5.70
2022-08-28T08:09:00.773Z,6.00
2022-08-28T08:14:05.699Z,6.40
2022-08-28T08:19:10.507Z,6.40
2022-08-28T08:24:21.128Z,6.10
2022-08-28T08:29:24.643Z,6.60
2022-08-28T08:34:27.377Z,5.60
2022-08-28T08:39:31.909Z,5.60
2022-08-28T08:49:48.441Z,5.60
2022-08-28T08:55:15.106Z,5.30
2022-08-28T09:00:19.257Z,5.10
2022-08-28T09:05:37.694Z,5.30
2022-08-28T09:10:46.308Z,4.90
2022-08-28T09:15:50.987Z,5.10
2022-08-28T09:31:09.021Z,4.90
2022-08-28T09:36:27.022Z,4.80
2022-08-28T09:41:48.632Z,5.80
2022-08-28T09:46:52.442Z,4.80
2022-08-28T09:51:59.521Z,5.10
2022-08-28T09:57:03.672Z,4.20
2022-08-28T10:02:41.021Z,4.20
2022-08-28T10:07:55.852Z,3.90
2022-08-28T10:13:17.964Z,4.00
2022-08-28T10:18:26.817Z,4.20
2022-08-28T10:24:06.186Z,4.60
2022-08-28T10:29:43.008Z,3.90
2022-08-28T10:35:12.111Z,4.30
2022-08-28T10:40:21.960Z,4.60
2022-08-28T10:45:26.523Z,4.10
2022-08-28T10:50:42.265Z,3.50
2022-08-28T10:56:00.123Z,4.50
2022-08-28T11:01:09.023Z,4.20
2022-08-28T11:06:30.649Z,4.40
2022-08-28T11:11:46.840Z,4.20
2022-08-28T11:16:51.436Z,4.40
2022-08-28T11:22:04.758Z,4.40
2022-08-28T11:27:22.287Z,4.30
2022-08-28T11:32:33.738Z,4.50
2022-08-28T11:37:41.290Z,4.20
2022-08-28T11:42:48.810Z,4.50
2022-08-28T11:47:56.430Z,4.70
2022-08-28T11:53:32.043Z,5.10
2022-08-28T11:58:40.899Z,5.40
2022-08-28T12:03:58.259Z,5.90
2022-08-28T12:09:03.682Z,5.70
2022-08-28T12:14:11.303Z,7.30
2022-08-28T12:19:55.658Z,5.90
2022-08-28T12:25:03.336Z,4.90
2022-08-28T12:30:06.768Z,5.20
2022-08-28T12:35:23.059Z,5.00
2022-08-28T12:40:38.088Z,5.40
2022-08-28T12:45:57.421Z,5.90
2022-08-28T12:51:19.914Z,6.10
2022-08-28T12:56:24.797Z,5.90
2022-08-28T13:01:31.795Z,5.50
2022-08-28T13:06:38.194Z,5.30
2022-08-28T13:11:47.303Z,5.70
2022-08-28T13:16:50.459Z,5.30
2022-08-28T13:21:59.040Z,6.40
2022-08-28T13:27:16.812Z,6.50
2022-08-28T13:32:19.798Z,5.60
2022-08-28T13:37:45.565Z,7.00
2022-08-28T13:42:48.992Z,5.70
2022-08-28T13:47:51.754Z,6.20
2022-08-28T13:52:55.504Z,5.50
2022-08-28T13:57:58.204Z,5.70
2022-08-28T14:03:19.470Z,6.10
2022-08-28T14:08:22.541Z,5.30
2022-08-28T14:13:27.703Z,6.10
2022-08-28T14:18:30.534Z,5.40
2022-08-28T14:23:33.674Z,6.10
2022-08-28T14:28:36.528Z,5.80
2022-08-28T14:33:39.241Z,5.40
2022-08-28T14:38:44.494Z,5.50
2022-08-28T14:43:49.511Z,5.20
2022-08-28T14:48:52.502Z,5.40
2022-08-28T14:53:55.173Z,5.60
2022-08-28T14:58:59.949Z,5.90
2022-08-28T15:04:07.742Z,5.80
2022-08-28T15:09:13.258Z,5.90
2022-08-28T15:14:16.185Z,5.40
2022-08-28T15:19:19.601Z,6.00
2022-08-28T15:24:26.472Z,5.80
2022-08-28T15:29:30.069Z,5.70
2022-08-28T15:34:32.916Z,6.60
2022-08-28T15:39:54.105Z,6.30
2022-08-28T15:44:57.100Z,6.00
2022-08-28T15:50:00.839Z,5.70
2022-08-28T15:55:06.341Z,6.20
2022-08-28T16:00:10.578Z,6.30
2022-08-28T16:10:17.817Z,8.50
2022-08-28T16:15:21.472Z,8.30
2022-08-28T16:20:25.321Z,9.70
2022-08-28T16:25:28.476Z,9.70
2022-08-28T16:30:32.670Z,9.20
2022-08-28T16:35:47.926Z,9.10
2022-08-28T16:40:58.440Z,9.80
2022-08-28T16:46:01.138Z,9.60
2022-08-28T16:51:04.083Z,9.70
2022-08-28T16:56:09.085Z,9.40
2022-08-28T17:01:13.563Z,9.20
2022-08-28T17:06:20.480Z,9.30
2022-08-28T17:11:24.256Z,10.40
2022-08-28T17:16:29.883Z,10.10
2022-08-28T17:21:51.433Z,10.20
2022-08-28T17:26:54.645Z,11.30
2022-08-28T17:31:58.097Z,10.90
2022-08-28T17:37:01.420Z,10.00
2022-08-28T17:42:04.329Z,10.90
2022-08-28T17:47:07.097Z,11.30
2022-08-28T17:52:09.868Z,10.40
2022-08-28T17:57:14.150Z,10.80
2022-08-28T18:02:17.209Z,10.30
2022-08-28T18:07:20.197Z,10.60
2022-08-28T18:12:26.491Z,9.80
2022-08-28T18:17:29.375Z,9.70
2022-08-28T18:22:32.101Z,10.40
2022-08-28T18:27:35.103Z,9.60
2022-08-28T18:32:37.801Z,10.00
2022-08-28T18:37:40.805Z,9.80
2022-08-28T18:42:43.961Z,9.20
2022-08-28T18:47:46.779Z,10.10
2022-08-28T18:52:51.573Z,9.70
2022-08-28T18:57:54.366Z,9.20
2022-08-28T19:02:59.210Z,9.40
2022-08-28T19:08:02.223Z,9.40
2022-08-28T19:13:05.839Z,10.20
2022-08-28T19:18:08.874Z,9.70
2022-08-28T19:23:15.517Z,10.00
2022-08-28T19:28:20.679Z,9.80
2022-08-28T19:33:23.378Z,9.40
2022-08-28T19:38:26.224Z,10.10
2022-08-28T19:43:41.599Z,9.80
2022-08-28T19:48:47.018Z,10.00
2022-08-28T19:53:59.062Z,10.10
2022-08-28T19:59:06.184Z,10.10
2022-08-28T20:04:13.442Z,9.60
2022-08-28T20:09:17.369Z,9.40
2022-08-28T20:14:21.392Z,9.50
2022-08-28T20:19:24.149Z,9.60
2022-08-28T20:24:28.221Z,9.10
2022-08-28T20:29:31.939Z,8.30
2022-08-28T20:34:34.704Z,9.00
2022-08-28T20:39:41.541Z,8.40
2022-08-28T20:44:44.225Z,8.20
2022-08-28T20:49:46.907Z,7.80
2022-08-28T20:54:49.924Z,8.20
2022-08-28T20:59:54.254Z,8.10
2022-08-28T21:04:58.194Z,8.30
2022-08-28T21:10:04.968Z,8.60
2022-08-28T21:15:12.582Z,6.60
2022-08-28T21:20:16.243Z,6.40
2022-08-28T21:25:20.838Z,6.60
2022-08-28T21:30:23.745Z,6.40
2022-08-28T21:35:33.053Z,6.10
2022-08-28T21:40:35.830Z,7.20
2022-08-28T21:45:38.714Z,6.60
2022-08-28T21:50:44.980Z,6.20
2022-08-28T21:55:49.643Z,6.60
2022-08-28T22:00:55.166Z,4.90
2022-08-28T22:05:58.324Z,4.90
2022-08-28T22:11:01.016Z,5.60
2022-08-28T22:16:04.975Z,5.30
2022-08-28T22:21:31.555Z,4.70
2022-08-28T22:26:35.051Z,5.70
2022-08-28T22:31:45.521Z,5.00
2022-08-28T22:36:48.979Z,5.00
2022-08-28T22:41:51.670Z,6.00
2022-08-28T22:46:54.586Z,5.00
2022-08-28T22:51:57.557Z,6.00
2022-08-28T22:57:00.267Z,5.70
2022-08-28T23:02:04.199Z,5.80
2022-08-28T23:07:06.932Z,6.40
2022-08-28T23:12:09.789Z,5.50
2022-08-28T23:17:12.903Z,5.50
2022-08-28T23:22:15.958Z,6.60
2022-08-28T23:27:35.829Z,6.80
2022-08-28T23:32:39.492Z,5.60
2022-08-28T23:37:44.558Z,5.80
2022-08-28T23:42:53.002Z,5.90
2022-08-28T23:47:55.918Z,6.30
2022-08-28T23:52:59.105Z,6.00
2022-08-28T23:58:04.152Z,5.70
